createdAt,value
2017-09-04T00:00:24.969Z,72.49
2017-09-04T00:05:26.959Z,72.40
2017-09-04T00:10:29.067Z,72.33
2017-09-04T00:15:31.140Z,72.94
2017-09-04T00:20:33.143Z,73.12
2017-09-04T00:25:35.099Z,72.56
2017-09-04T00:30:37.094Z,72.76
2017-09-04T00:35:39.085Z,72.57
2017-09-04T00:40:41.084Z,72.67
2017-09-04T00:45:43.246Z,72.42
2017-09-04T00:50:45.457Z,72.31
2017-09-04T00:55:47.519Z,72.30
2017-09-04T01:00:49.599Z,72.15
2017-09-04T01:05:51.716Z,72.20
2017-09-04T01:10:53.741Z,72.66
2017-09-04T01:15:55.986Z,73.22
2017-09-04T01:20:57.936Z,73.18
2017-09-04T01:25:59.975Z,72.78
2017-09-04T01:31:01.942Z,73.11
2017-09-04T01:36:03.930Z,73.06
2017-09-04T01:41:06.072Z,72.65
2017-09-04T01:46:08.124Z,72.58
2017-09-04T01:51:10.099Z,72.61
2017-09-04T01:56:12.174Z,72.61
2017-09-04T02:01:14.163Z,72.47
2017-09-04T02:06:16.174Z,72.15
2017-09-04T02:11:18.194Z,72.40
2017-09-04T02:16:20.219Z,72.78
2017-09-04T02:21:22.167Z,72.77
2017-09-04T02:26:24.170Z,72.42
2017-09-04T02:31:26.208Z,72.37
2017-09-04T02:36:28.252Z,73.04
2017-09-04T02:41:30.204Z,73.00
2017-09-04T02:46:32.193Z,72.43
2017-09-04T02:51:34.878Z,72.77
2017-09-04T02:56:36.921Z,72.86
2017-09-04T03:01:38.965Z,72.74
2017-09-04T03:06:40.964Z,71.99
2017-09-04T03:11:43.132Z,72.26
2017-09-04T03:16:48.624Z,72.75
2017-09-04T03:21:52.953Z,72.26
2017-09-04T03:26:55.010Z,72.44
2017-09-04T03:31:57.623Z,72.29
2017-09-04T03:37:03.010Z,72.13
2017-09-04T03:42:05.685Z,72.55
2017-09-04T03:47:08.791Z,72.72
2017-09-04T03:52:12.346Z,72.83
2017-09-04T03:57:16.942Z,72.50
2017-09-04T04:02:20.423Z,72.73
2017-09-04T04:07:22.661Z,72.06
2017-09-04T04:12:24.995Z,72.29
2017-09-04T04:17:28.023Z,72.42
2017-09-04T04:22:31.547Z,72.00
2017-09-04T04:27:37.080Z,72.07
2017-09-04T04:32:41.126Z,72.16
2017-09-04T04:37:43.747Z,72.52
2017-09-04T04:42:46.313Z,72.15
2017-09-04T04:47:50.664Z,72.81
2017-09-04T04:52:56.377Z,72.23
2017-09-04T04:57:58.515Z,71.99
2017-09-04T05:03:00.587Z,72.33
2017-09-04T05:08:02.667Z,72.57
2017-09-04T05:13:05.198Z,72.16
2017-09-04T05:18:07.309Z,71.19
2017-09-04T05:23:09.283Z,71.04
2017-09-04T05:28:11.352Z,71.00
2017-09-04T05:33:13.403Z,70.98
2017-09-04T05:38:15.358Z,71.21
2017-09-04T05:43:17.390Z,71.64
2017-09-04T05:48:19.453Z,71.69
2017-09-04T05:53:21.501Z,71.49
2017-09-04T05:58:23.495Z,70.94
2017-09-04T06:03:25.543Z,70.29
2017-09-04T06:08:27.524Z,70.10
2017-09-04T06:13:29.580Z,69.75
2017-09-04T06:18:31.586Z,69.64
2017-09-04T06:23:33.562Z,69.44
2017-09-04T06:28:35.612Z,69.25
2017-09-04T06:33:37.831Z,68.99
2017-09-04T06:38:39.827Z,68.64
2017-09-04T06:43:41.917Z,68.53
2017-09-04T06:48:43.924Z,68.11
2017-09-04T06:53:45.941Z,67.64
2017-09-04T06:58:48.155Z,67.50
2017-09-04T07:03:50.540Z,67.19
2017-09-04T07:08:54.248Z,66.93
2017-09-04T07:13:56.462Z,67.14
2017-09-04T07:18:58.778Z,66.71
2017-09-04T07:24:01.288Z,66.01
2017-09-04T07:29:03.893Z,65.36
2017-09-04T07:34:06.237Z,64.98
2017-09-04T07:39:08.540Z,64.32
2017-09-04T07:44:12.970Z,64.05
2017-09-04T07:49:15.431Z,63.52
2017-09-04T07:54:17.859Z,62.26
2017-09-04T07:59:20.307Z,61.25
2017-09-04T08:04:22.731Z,60.86
2017-09-04T08:09:25.233Z,59.79
2017-09-04T08:14:27.598Z,59.23
2017-09-04T08:19:30.183Z,59.32
2017-09-04T08:24:32.546Z,59.43
2017-09-04T08:29:35.014Z,59.81
2017-09-04T08:34:37.432Z,59.25
2017-09-04T08:39:39.784Z,58.65
2017-09-04T08:44:42.065Z,58.37
2017-09-04T08:49:44.580Z,57.91
2017-09-04T08:54:46.592Z,57.92
2017-09-04T08:59:48.929Z,57.62
2017-09-04T09:04:51.337Z,56.84
2017-09-04T09:09:53.701Z,56.46
2017-09-04T09:14:55.730Z,56.41
2017-09-04T09:19:57.887Z,54.54
2017-09-04T09:24:59.914Z,53.88
2017-09-04T09:30:02.208Z,53.10
2017-09-04T09:35:04.239Z,51.07
2017-09-04T09:40:06.233Z,51.54
2017-09-04T09:45:08.216Z,51.73
2017-09-04T09:50:10.280Z,51.62
2017-09-04T09:55:14.311Z,51.13
2017-09-04T10:00:16.394Z,51.77
2017-09-04T10:05:18.460Z,51.67
2017-09-04T10:10:20.511Z,50.23
2017-09-04T10:15:22.556Z,49.97
2017-09-04T10:20:24.618Z,47.34
2017-09-04T10:25:26.677Z,46.81
2017-09-04T10:30:28.722Z,47.11
2017-09-04T10:35:30.924Z,45.26
2017-09-04T10:40:33.559Z,45.80
2017-09-04T10:45:35.636Z,45.02
2017-09-04T10:50:37.677Z,44.91
2017-09-04T10:55:39.664Z,44.88
2017-09-04T11:00:41.681Z,44.75
2017-09-04T11:05:43.696Z,40.74
2017-09-04T11:10:45.695Z,40.82
2017-09-04T11:15:48.707Z,42.32
2017-09-04T11:20:50.774Z,42.99
2017-09-04T11:25:52.820Z,41.81
2017-09-04T11:30:54.918Z,41.31
2017-09-04T11:35:57.065Z,39.34
2017-09-04T11:40:59.338Z,39.02
2017-09-04T11:46:01.801Z,36.77
2017-09-04T11:51:04.269Z,33.97
2017-09-04T11:56:06.329Z,34.72
2017-09-04T12:01:08.453Z,33.92
2017-09-04T12:06:10.650Z,34.34
2017-09-04T12:11:12.688Z,34.44
2017-09-04T12:16:14.662Z,33.30
2017-09-04T12:21:16.632Z,35.65
2017-09-04T12:26:18.756Z,35.85
2017-09-04T12:31:20.791Z,35.59
2017-09-04T12:36:22.864Z,36.60
2017-09-04T12:41:24.925Z,36.27
2017-09-04T12:46:26.918Z,33.64
2017-09-04T12:51:28.938Z,36.30
2017-09-04T12:56:30.956Z,35.36
2017-09-04T13:01:33.046Z,34.87
2017-09-04T13:06:35.078Z,34.19
2017-09-04T13:11:42.952Z,34.69
2017-09-04T13:16:51.063Z,35.38
2017-09-04T13:21:59.076Z,36.12
2017-09-04T13:27:07.117Z,37.05
2017-09-04T13:32:15.667Z,35.89
2017-09-04T13:37:23.697Z,35.33
2017-09-04T13:48:11.855Z,34.79
2017-09-04T14:04:34.731Z,35.26
2017-09-04T14:21:05.908Z,34.88
2017-09-04T14:26:07.974Z,33.87
2017-09-04T14:31:09.996Z,33.14
2017-09-04T14:36:12.011Z,34.57
2017-09-04T14:41:19.952Z,35.38
2017-09-04T14:46:23.902Z,36.79
2017-09-04T14:51:25.956Z,36.82
2017-09-04T14:56:28.012Z,35.94
2017-09-04T15:01:30.071Z,37.42
2017-09-04T15:06:32.135Z,37.11
2017-09-04T15:11:34.204Z,37.08
2017-09-04T15:16:36.222Z,36.74
2017-09-04T15:21:38.388Z,36.94
2017-09-04T15:26:40.564Z,36.33
2017-09-04T15:31:42.595Z,36.41
2017-09-04T15:36:44.607Z,36.67
2017-09-04T15:41:47.242Z,36.38
2017-09-04T15:46:50.282Z,36.44
2017-09-04T15:51:52.489Z,35.69
2017-09-04T15:56:54.680Z,35.18
2017-09-04T16:01:59.369Z,34.63
2017-09-04T16:12:55.940Z,34.92
2017-09-04T16:18:13.840Z,35.49
2017-09-04T16:23:26.803Z,35.37
2017-09-04T16:28:37.965Z,35.63
2017-09-04T16:33:49.339Z,36.34
2017-09-04T16:38:58.991Z,36.99
2017-09-04T16:44:10.689Z,38.93
2017-09-04T16:49:22.956Z,40.71
2017-09-04T16:54:31.156Z,41.33
2017-09-04T16:59:40.909Z,42.60
2017-09-04T17:04:49.684Z,42.53
2017-09-04T17:09:58.464Z,42.69
2017-09-04T17:15:06.032Z,44.49
2017-09-04T17:20:18.265Z,44.63
2017-09-04T17:25:26.460Z,46.16
2017-09-04T17:30:34.075Z,48.69
2017-09-04T17:35:46.696Z,49.55
2017-09-04T17:40:50.212Z,50.13
2017-09-04T17:45:59.363Z,50.29
2017-09-04T17:51:03.132Z,51.66
2017-09-04T17:56:05.661Z,52.53
2017-09-04T18:01:09.734Z,53.05
2017-09-04T18:06:13.110Z,52.46
2017-09-04T18:11:17.531Z,53.77
2017-09-04T18:16:22.421Z,55.21
2017-09-04T18:21:33.766Z,55.09
2017-09-04T18:26:37.934Z,56.05
2017-09-04T18:31:45.493Z,57.38
2017-09-04T18:36:53.339Z,57.67
2017-09-04T18:42:00.240Z,58.98
2017-09-04T18:47:04.292Z,59.74
2017-09-04T18:52:08.933Z,61.38
2017-09-04T18:57:18.675Z,61.76
2017-09-04T19:02:26.701Z,61.95
2017-09-04T19:07:34.430Z,62.21
2017-09-04T19:12:43.517Z,63.21
2017-09-04T19:17:54.214Z,63.21
2017-09-04T19:23:00.235Z,62.38
2017-09-04T19:28:11.305Z,62.52
2017-09-04T19:33:16.363Z,62.75
2017-09-04T19:38:23.091Z,62.92
2017-09-04T19:43:26.883Z,62.97
2017-09-04T19:48:31.426Z,62.28
2017-09-04T19:53:34.327Z,62.43
2017-09-04T19:58:39.049Z,62.97
2017-09-04T20:03:41.486Z,63.35
2017-09-04T20:08:45.119Z,63.59
2017-09-04T20:13:47.848Z,63.73
2017-09-04T20:18:50.328Z,63.83
2017-09-04T20:23:52.862Z,63.88
2017-09-04T20:28:55.757Z,64.01
2017-09-04T20:34:01.563Z,64.39
2017-09-04T20:39:04.954Z,64.84
2017-09-04T20:44:07.414Z,64.75
2017-09-04T20:49:13.960Z,64.66
2017-09-04T20:54:16.891Z,64.81
2017-09-04T20:59:19.496Z,65.15
2017-09-04T21:04:23.185Z,65.22
2017-09-04T21:09:26.619Z,65.57
2017-09-04T21:14:29.194Z,65.43
2017-09-04T21:19:31.792Z,65.60
2017-09-04T21:24:35.269Z,65.60
2017-09-04T21:29:37.716Z,65.47
2017-09-04T21:34:40.032Z,64.99
2017-09-04T21:39:42.629Z,65.08
2017-09-04T21:44:45.114Z,65.43
2017-09-04T21:49:47.321Z,65.29
2017-09-04T21:54:49.722Z,65.07
2017-09-04T21:59:52.322Z,65.39
2017-09-04T22:04:54.661Z,65.86
2017-09-04T22:09:57.003Z,66.11
2017-09-04T22:14:59.217Z,66.37
2017-09-04T22:20:01.446Z,66.67
2017-09-04T22:25:03.798Z,67.09
2017-09-04T22:30:06.297Z,68.12
2017-09-04T22:35:08.706Z,68.15
2017-09-04T22:40:11.069Z,67.72
2017-09-04T22:45:13.453Z,67.99
2017-09-04T22:50:15.908Z,67.74
2017-09-04T22:55:18.204Z,67.67
2017-09-04T23:00:20.724Z,67.63
2017-09-04T23:05:23.281Z,67.62
2017-09-04T23:10:26.074Z,67.63
2017-09-04T23:15:28.357Z,67.34
2017-09-04T23:20:30.720Z,67.39
2017-09-04T23:25:33.053Z,67.69
2017-09-04T23:30:35.308Z,67.47
2017-09-04T23:35:37.606Z,67.16
2017-09-04T23:40:39.889Z,67.25
2017-09-04T23:45:42.192Z,66.92
2017-09-04T23:50:44.578Z,67.01
2017-09-04T23:55:47.003Z,66.64
